Time,TemperatureF,DewpointF,PressureIn,WindDirection,WindDirectionDegrees,WindSpeedMPH,WindSpeedGustMPH,Humidity,HourlyPrecipIn,Conditions,Clouds,dailyrainin,SolarRadiationWatts/m^2,SoftwareType,DateUTC
2013-11-13 00:02:00,29.7,19.4,30.74,NNE,19,1.4,3.5,65,0.00,CLR,,0.00,0.0,WeatherDisplay:10.37,2013-11-13 06:02:00,
2013-11-13 00:07:00,29.4,19.4,30.74,NNE,19,1.0,3.0,66,0.00,CLR,,0.00,0.0,WeatherDisplay:10.37,2013-11-13 06:07:00,
2013-11-13 00:12:00,29.3,19.7,30.74,NNE,19,0.9,3.5,67,0.00,CLR,,0.00,0.0,WeatherDisplay:10.37,2013-11-13 06:12:00,
2013-11-13 00:17:00,29.3,19.7,30.74,NNE,19,0.5,3.5,67,0.00,CLR,,0.00,0.0,WeatherDisplay:10.37,2013-11-13 06:17:00,
2013-11-13 00:22:00,29.3,19.7,30.74,NNE,19,0.0,0.0,67,0.00,CLR,,0.00,0.0,WeatherDisplay:10.37,2013-11-13 06:22:00,
2013-11-13 00:27:00,29.2,19.9,30.74,NNE,19,0.5,2.3,68,0.00,CLR,,0.00,0.0,WeatherDisplay:10.37,2013-11-13 06:27:00,
2013-11-13 00:32:00,29.0,20.1,30.74,NNE,19,0.3,2.0,69,0.00,CLR,,0.00,0.0,WeatherDisplay:10.37,2013-11-13 06:32:00,
2013-11-13 00:37:00,28.9,19.3,30.74,NNE,19,0.8,3.5,67,0.00,CLR,,0.00,0.0,WeatherDisplay:10.37,2013-11-13 06:37:00,
2013-11-13 00:42:00,28.7,19.5,30.75,NNE,19,0.8,2.3,68,0.00,CLR,,0.00,0.0,WeatherDisplay:10.37,2013-11-13 06:42:00,
2013-11-13 00:47:00,28.5,20.3,30.75,NNE,19,0.0,1.2,71,0.00,CLR,,0.00,0.0,WeatherDisplay:10.37,2013-11-13 06:47:00,
2013-11-13 00:52:00,28.5,19.6,30.75,NNE,19,1.6,3.5,69,0.00,CLR,,0.00,0.0,WeatherDisplay:10.37,2013-11-13 06:52:00,
2013-11-13 00:57:00,28.6,19.7,30.74,NNE,19,0.3,3.5,69,0.00,CLR,,0.00,0.0,WeatherDisplay:10.37,2013-11-13 06:57:00,
2013-11-13 01:02:00,28.6,19.7,30.74,NNE,19,2.4,4.6,69,0.00,CLR,,0.00,0.0,WeatherDisplay:10.37,2013-11-13 07:02:00,
2013-11-13 01:07:00,28.7,19.8,30.74,NNE,19,2.4,3.5,69,0.00,CLR,,0.00,0.0,WeatherDisplay:10.37,2013-11-13 07:07:00,
2013-11-13 01:12:00,28.6,19.7,30.74,NNE,19,2.6,3.5,69,0.00,CLR,,0.00,0.0,WeatherDisplay:10.37,2013-11-13 07:12:00,
2013-11-13 01:17:00,28.7,19.5,30.74,NNE,19,3.2,4.6,68,0.00,CLR,,0.00,0.0,WeatherDisplay:10.37,2013-11-13 07:17:00,
2013-11-13 01:22:00,28.6,19.4,30.74,NNE,19,2.4,4.6,68,0.00,CLR,,0.00,0.0,WeatherDisplay:10.37,2013-11-13 07:22:00,
2013-11-13 01:27:00,28.5,19.6,30.74,NNE,19,0.1,2.0,69,0.00,CLR,,0.00,0.0,WeatherDisplay:10.37,2013-11-13 07:27:00,
2013-11-13 01:32:00,28.5,19.6,30.74,NNE,19,1.1,3.5,69,0.00,CLR,,0.00,0.0,WeatherDisplay:10.37,2013-11-13 07:32:00,
2013-11-13 01:37:00,28.5,19.3,30.75,NNE,19,0.9,2.3,68,0.00,CLR,,0.00,0.0,WeatherDisplay:10.37,2013-11-13 07:37:00,
2013-11-13 01:42:00,28.3,19.4,30.75,NNE,19,0.2,2.3,69,0.00,CLR,,0.00,0.0,WeatherDisplay:10.37,2013-11-13 07:42:00,
2013-11-13 01:47:00,28.0,19.5,30.75,NNE,19,2.8,3.5,70,0.00,CLR,,0.00,0.0,WeatherDisplay:10.37,2013-11-13 07:47:00,
2013-11-13 01:52:00,27.7,19.2,30.75,NNE,19,1.7,3.5,70,0.00,CLR,,0.00,0.0,WeatherDisplay:10.37,2013-11-13 07:52:00,
2013-11-13 01:57:00,27.6,20.1,30.75,NNE,19,0.8,2.3,73,0.00,CLR,,0.00,0.0,WeatherDisplay:10.37,2013-11-13 07:57:00,
2013-11-13 02:02:00,27.5,19.7,30.75,NNE,19,0.1,1.2,72,0.00,CLR,,0.00,0.0,WeatherDisplay:10.37,2013-11-13 08:02:00,
2013-11-13 02:07:00,27.5,19.7,30.75,NNE,19,0.0,1.2,72,0.00,CLR,,0.00,0.0,WeatherDisplay:10.37,2013-11-13 08:07:00,
2013-11-13 02:12:00,27.7,19.8,30.75,NNE,19,1.4,3.5,72,0.00,CLR,,0.00,0.0,WeatherDisplay:10.37,2013-11-13 08:12:00,
2013-11-13 02:17:00,27.3,19.5,30.75,NNE,19,1.7,3.5,72,0.00,CLR,,0.00,0.0,WeatherDisplay:10.37,2013-11-13 08:17:00,
2013-11-13 02:22:00,27.2,19.4,30.74,NNE,19,2.3,3.5,72,0.00,CLR,,0.00,0.0,WeatherDisplay:10.37,2013-11-13 08:22:00,
2013-11-13 02:27:00,27.1,19.9,30.74,NNE,19,2.4,3.5,74,0.00,CLR,,0.00,0.0,WeatherDisplay:10.37,2013-11-13 08:27:00,
2013-11-13 02:32:00,27.0,19.8,30.74,NNE,19,1.6,3.5,74,0.00,CLR,,0.00,0.0,WeatherDisplay:10.37,2013-11-13 08:32:00,
2013-11-13 02:37:00,27.1,19.6,30.74,NNE,19,0.8,2.3,73,0.00,CLR,,0.00,0.0,WeatherDisplay:10.37,2013-11-13 08:37:00,
2013-11-13 02:42:00,27.1,19.9,30.74,NNE,19,0.4,3.5,74,0.00,CLR,,0.00,0.0,WeatherDisplay:10.37,2013-11-13 08:42:00,
2013-11-13 02:47:00,27.2,20.0,30.74,NNE,19,0.0,0.0,74,0.00,CLR,,0.00,0.0,WeatherDisplay:10.37,2013-11-13 08:47:00,
2013-11-13 02:52:00,27.0,19.5,30.74,NNE,19,0.1,3.5,73,0.00,CLR,,0.00,0.0,WeatherDisplay:10.37,2013-11-13 08:52:00,
2013-11-13 02:57:00,27.0,19.8,30.74,NNE,19,1.5,3.5,74,0.00,CLR,,0.00,0.0,WeatherDisplay:10.37,2013-11-13 08:57:00,
2013-11-13 03:02:00,27.0,19.8,30.74,NNE,19,0.2,3.5,74,0.00,CLR,,0.00,0.0,WeatherDisplay:10.37,2013-11-13 09:02:00,
2013-11-13 03:07:00,26.8,19.6,30.74,NNE,19,0.0,0.0,74,0.00,CLR,,0.00,0.0,WeatherDisplay:10.37,2013-11-13 09:07:00,
2013-11-13 03:12:00,26.8,19.6,30.74,NNE,19,1.4,2.3,74,0.00,CLR,,0.00,0.0,WeatherDisplay:10.37,2013-11-13 09:12:00,
2013-11-13 03:17:00,26.7,19.5,30.74,NNE,19,3.0,3.5,74,0.00,CLR,,0.00,0.0,WeatherDisplay:10.37,2013-11-13 09:17:00,
2013-11-13 03:22:00,26.4,19.5,30.73,NNE,19,0.0,0.0,75,0.00,CLR,,0.00,0.0,WeatherDisplay:10.37,2013-11-13 09:22:00,
2013-11-13 03:27:00,26.0,19.8,30.74,NNE,19,0.0,0.0,77,0.00,CLR,,0.00,0.0,WeatherDisplay:10.37,2013-11-13 09:27:00,
2013-11-13 03:32:00,25.8,19.6,30.73,NNE,19,1.2,3.5,77,0.00,CLR,,0.00,0.0,WeatherDisplay:10.37,2013-11-13 09:32:00,
2013-11-13 03:37:00,25.5,19.9,30.73,NNE,19,0.0,3.5,79,0.00,CLR,,0.00,0.0,WeatherDisplay:10.37,2013-11-13 09:37:00,
2013-11-13 03:42:00,25.6,20.0,30.73,NNE,19,0.0,1.2,79,0.00,CLR,,0.00,0.0,WeatherDisplay:10.37,2013-11-13 09:42:00,
2013-11-13 03:47:00,25.8,20.2,30.73,NNE,19,0.0,0.0,79,0.00,CLR,,0.00,0.0,WeatherDisplay:10.37,2013-11-13 09:47:00,
2013-11-13 03:52:00,26.1,20.2,30.73,NNE,19,0.0,0.0,78,0.00,CLR,,0.00,0.0,WeatherDisplay:10.37,2013-11-13 09:52:00,
2013-11-13 03:57:00,26.2,20.0,30.73,NNE,19,1.0,3.5,77,0.00,CLR,,0.00,0.0,WeatherDisplay:10.37,2013-11-13 09:57:00,
2013-11-13 04:02:00,26.3,20.1,30.73,NNE,19,0.6,3.5,77,0.00,CLR,,0.00,0.0,WeatherDisplay:10.37,2013-11-13 10:02:00,
2013-11-13 04:07:00,26.1,19.6,30.73,NNE,19,0.0,0.0,76,0.00,CLR,,0.00,0.0,WeatherDisplay:10.37,2013-11-13 10:07:00,
2013-11-13 04:12:00,25.9,19.4,30.73,NNE,19,0.0,0.0,76,0.00,CLR,,0.00,0.0,WeatherDisplay:10.37,2013-11-13 10:12:00,
2013-11-13 04:17:00,25.7,19.2,30.73,NNE,19,0.0,0.0,76,0.00,CLR,,0.00,0.0,WeatherDisplay:10.37,2013-11-13 10:17:00,
2013-11-13 04:22:00,25.5,19.3,30.73,NNE,19,0.0,0.0,77,0.00,CLR,,0.00,0.0,WeatherDisplay:10.37,2013-11-13 10:22:00,
2013-11-13 04:27:00,25.3,19.7,30.73,NNE,19,0.0,0.0,79,0.00,CLR,,0.00,0.0,WeatherDisplay:10.37,2013-11-13 10:27:00,
2013-11-13 04:32:00,25.1,19.5,30.73,NNE,19,0.0,0.0,79,0.00,CLR,,0.00,0.0,WeatherDisplay:10.37,2013-11-13 10:32:00,
2013-11-13 04:37:00,25.0,19.7,30.73,NNE,19,0.0,0.0,80,0.00,CLR,,0.00,0.0,WeatherDisplay:10.37,2013-11-13 10:37:00,
2013-11-13 04:42:00,24.9,19.9,30.73,NNE,19,0.0,0.0,81,0.00,CLR,,0.00,0.0,WeatherDisplay:10.37,2013-11-13 10:42:00,
2013-11-13 04:47:00,24.9,19.9,30.73,NNE,19,0.0,0.0,81,0.00,CLR,,0.00,0.0,WeatherDisplay:10.37,2013-11-13 10:47:00,
2013-11-13 04:52:00,24.9,19.3,30.73,NNE,19,0.0,0.0,79,0.00,CLR,,0.00,0.0,WeatherDisplay:10.37,2013-11-13 10:52:00,
2013-11-13 04:57:00,24.8,19.2,30.73,NNE,19,0.0,0.0,79,0.00,CLR,,0.00,0.0,WeatherDisplay:10.37,2013-11-13 10:57:00,
2013-11-13 05:02:00,24.6,19.3,30.73,NNE,19,0.0,0.0,80,0.00,CLR,,0.00,0.0,WeatherDisplay:10.37,2013-11-13 11:02:00,
2013-11-13 05:07:00,24.5,19.5,30.73,NNE,19,0.0,0.0,81,0.00,CLR,,0.00,0.0,WeatherDisplay:10.37,2013-11-13 11:07:00,
2013-11-13 05:12:00,24.3,19.3,30.73,NNE,19,0.0,0.0,81,0.00,CLR,,0.00,0.0,WeatherDisplay:10.37,2013-11-13 11:12:00,
2013-11-13 05:17:00,24.2,19.2,30.73,NNE,19,0.0,0.0,81,0.00,CLR,,0.00,0.0,WeatherDisplay:10.37,2013-11-13 11:17:00,
2013-11-13 05:22:00,24.0,19.3,30.73,NNE,19,0.0,0.0,82,0.00,CLR,,0.00,0.0,WeatherDisplay:10.37,2013-11-13 11:22:00,
2013-11-13 05:27:00,24.0,19.6,30.73,NNE,19,0.0,0.0,83,0.00,CLR,,0.00,0.0,WeatherDisplay:10.37,2013-11-13 11:27:00,
2013-11-13 05:32:00,23.9,19.5,30.73,NNE,19,0.0,0.0,83,0.00,CLR,,0.00,0.0,WeatherDisplay:10.37,2013-11-13 11:32:00,
2013-11-13 05:37:00,23.8,19.4,30.73,NNE,19,0.0,0.0,83,0.00,CLR,,0.00,0.0,WeatherDisplay:10.37,2013-11-13 11:37:00,
2013-11-13 05:42:00,23.5,19.4,30.73,NNE,19,0.0,0.0,84,0.00,CLR,,0.00,0.0,WeatherDisplay:10.37,2013-11-13 11:42:00,
2013-11-13 05:47:00,23.4,19.6,30.73,NNE,19,0.0,0.0,85,0.00,CLR,,0.00,0.0,WeatherDisplay:10.37,2013-11-13 11:47:00,
2013-11-13 05:52:00,23.4,19.6,30.73,NNE,19,0.0,0.0,85,0.00,CLR,,0.00,0.0,WeatherDisplay:10.37,2013-11-13 11:52:00,
2013-11-13 05:57:00,23.4,19.6,30.73,NNE,19,0.0,0.0,85,0.00,CLR,,0.00,0.0,WeatherDisplay:10.37,2013-11-13 11:57:00,
2013-11-13 06:02:00,23.3,19.5,30.73,NNE,19,0.0,0.0,85,0.00,CLR,,0.00,0.0,WeatherDisplay:10.37,2013-11-13 12:02:00,
2013-11-13 06:07:00,23.3,19.7,30.73,NNE,19,0.0,0.0,86,0.00,CLR,,0.00,0.0,WeatherDisplay:10.37,2013-11-13 12:07:00,
2013-11-13 06:12:00,23.0,19.4,30.73,NNE,19,0.0,0.0,86,0.00,CLR,,0.00,0.0,WeatherDisplay:10.37,2013-11-13 12:12:00,
2013-11-13 06:17:00,22.8,19.5,30.73,NNE,19,0.0,0.0,87,0.00,CLR,,0.00,0.0,WeatherDisplay:10.37,2013-11-13 12:17:00,
2013-11-13 06:22:00,22.5,19.5,30.73,NNE,19,0.0,0.0,88,0.00,CLR,,0.00,0.0,WeatherDisplay:10.37,2013-11-13 12:22:00,
2013-11-13 06:27:00,22.1,19.1,30.72,NNE,19,0.0,0.0,88,0.00,CLR,,0.00,0.0,WeatherDisplay:10.37,2013-11-13 12:27:00,
2013-11-13 06:32:00,22.0,19.3,30.72,NNE,19,0.0,0.0,89,0.00,CLR,,0.00,0.0,WeatherDisplay:10.37,2013-11-13 12:32:00,
2013-11-13 06:37:00,21.9,19.2,30.72,NNE,19,0.0,0.0,89,0.00,CLR,,0.00,0.0,WeatherDisplay:10.37,2013-11-13 12:37:00,
2013-11-13 06:42:00,21.8,19.1,30.72,NNE,19,0.0,0.0,89,0.00,CLR,,0.00,0.0,WeatherDisplay:10.37,2013-11-13 12:42:00,
2013-11-13 06:47:00,21.8,19.3,30.72,NNE,19,0.0,0.0,90,0.00,CLR,,0.00,0.0,WeatherDisplay:10.37,2013-11-13 12:47:00,
2013-11-13 06:52:00,21.8,19.3,30.72,NNE,19,0.0,0.0,90,0.00,CLR,,0.00,0.0,WeatherDisplay:10.37,2013-11-13 12:52:00,
2013-11-13 06:57:00,21.7,19.2,30.72,NNE,19,0.0,0.0,90,0.00,CLR,,0.00,0.0,WeatherDisplay:10.37,2013-11-13 12:57:00,
2013-11-13 07:02:00,21.6,19.1,30.72,NNE,19,0.0,0.0,90,0.00,CLR,,0.00,5.5,WeatherDisplay:10.37,2013-11-13 13:02:00,
2013-11-13 07:07:00,21.6,19.1,30.72,NNE,19,0.0,0.0,90,0.00,CLR,,0.00,7.7,WeatherDisplay:10.37,2013-11-13 13:07:00,
2013-11-13 07:12:00,21.9,19.4,30.72,NNE,19,0.0,0.0,90,0.00,CLR,,0.00,9.9,WeatherDisplay:10.37,2013-11-13 13:12:00,
2013-11-13 07:17:00,22.0,19.5,30.72,NNE,19,0.0,0.0,90,0.00,CLR,,0.00,12.1,WeatherDisplay:10.37,2013-11-13 13:17:00,
2013-11-13 07:22:00,21.9,19.4,30.72,NNE,19,0.0,0.0,90,0.00,CLR,,0.00,13.2,WeatherDisplay:10.37,2013-11-13 13:22:00,
2013-11-13 07:27:00,21.9,19.4,30.72,NNE,19,0.0,0.0,90,0.00,CLR,,0.00,15.4,WeatherDisplay:10.37,2013-11-13 13:27:00,
2013-11-13 07:32:00,22.1,19.6,30.72,NNE,19,0.0,0.0,90,0.00,CLR,,0.00,17.6,WeatherDisplay:10.37,2013-11-13 13:32:00,
2013-11-13 07:37:00,22.6,20.4,30.72,NNE,19,0.0,0.0,91,0.00,CLR,,0.00,19.8,WeatherDisplay:10.37,2013-11-13 13:37:00,
2013-11-13 07:42:00,22.9,20.7,30.72,NNE,19,0.0,0.0,91,0.00,CLR,,0.00,20.9,WeatherDisplay:10.37,2013-11-13 13:42:00,
2013-11-13 07:47:00,23.2,21.0,30.72,NNE,19,0.0,0.0,91,0.00,CLR,,0.00,23.1,WeatherDisplay:10.37,2013-11-13 13:47:00,
2013-11-13 07:52:00,23.7,21.5,30.72,NNE,19,0.0,0.0,91,0.00,CLR,,0.00,25.3,WeatherDisplay:10.37,2013-11-13 13:52:00,
2013-11-13 07:57:00,24.4,22.2,30.72,NNE,19,0.0,0.0,91,0.00,CLR,,0.00,27.5,WeatherDisplay:10.37,2013-11-13 13:57:00,
2013-11-13 08:02:00,25.1,22.6,30.73,NNE,19,0.0,0.0,90,0.00,CLR,,0.00,28.6,WeatherDisplay:10.37,2013-11-13 14:02:00,
2013-11-13 08:07:00,25.8,22.7,30.72,NNE,19,0.0,0.0,88,0.00,CLR,,0.00,28.6,WeatherDisplay:10.37,2013-11-13 14:07:00,
2013-11-13 08:12:00,26.5,22.6,30.72,NNE,19,0.0,0.0,85,0.00,CLR,,0.00,30.8,WeatherDisplay:10.37,2013-11-13 14:12:00,
2013-11-13 08:17:00,27.0,22.5,30.72,NNE,19,0.0,0.0,83,0.00,CLR,,0.00,33.0,WeatherDisplay:10.37,2013-11-13 14:17:00,
2013-11-13 08:22:00,27.5,21.8,30.72,NNE,19,0.0,0.0,79,0.00,CLR,,0.00,69.3,WeatherDisplay:10.37,2013-11-13 14:22:00,
2013-11-13 08:27:00,28.2,21.9,30.72,NNE,19,0.0,0.0,77,0.00,CLR,,0.00,102.3,WeatherDisplay:10.37,2013-11-13 14:27:00,
2013-11-13 08:32:00,28.7,22.1,30.72,NNE,19,0.0,0.0,76,0.00,CLR,,0.00,40.7,WeatherDisplay:10.37,2013-11-13 14:32:00,
2013-11-13 08:37:00,29.3,22.7,30.72,NNE,19,0.0,0.0,76,0.00,CLR,,0.00,40.7,WeatherDisplay:10.37,2013-11-13 14:37:00,
2013-11-13 08:42:00,29.8,22.8,30.72,NNE,19,0.0,0.0,75,0.00,CLR,,0.00,115.5,WeatherDisplay:10.37,2013-11-13 14:42:00,
2013-11-13 08:47:00,30.3,23.0,30.73,NNE,19,0.0,0.0,74,0.00,CLR,,0.00,40.7,WeatherDisplay:10.37,2013-11-13 14:47:00,
2013-11-13 08:52:00,30.9,23.3,30.72,NNE,19,1.6,3.5,73,0.00,CLR,,0.00,44.0,WeatherDisplay:10.37,2013-11-13 14:52:00,
2013-11-13 08:57:00,31.5,23.8,30.72,NNE,19,0.1,1.2,73,0.00,CLR,,0.00,44.0,WeatherDisplay:10.37,2013-11-13 14:57:00,
2013-11-13 09:02:00,32.1,24.1,30.72,NNE,19,1.0,3.5,72,0.00,CLR,,0.00,59.4,WeatherDisplay:10.37,2013-11-13 15:02:00,
2013-11-13 09:07:00,32.8,25.1,30.72,NNE,19,0.5,2.0,73,0.00,CLR,,0.00,48.4,WeatherDisplay:10.37,2013-11-13 15:07:00,
2013-11-13 09:12:00,33.4,25.3,30.72,NNE,20,1.0,2.3,72,0.00,CLR,,0.00,71.5,WeatherDisplay:10.37,2013-11-13 15:12:00,
2013-11-13 09:17:00,34.6,26.2,30.72,NNE,20,0.7,2.3,71,0.00,CLR,,0.00,216.7,WeatherDisplay:10.37,2013-11-13 15:17:00,
2013-11-13 09:22:00,35.5,26.3,30.72,NNE,20,1.0,2.3,69,0.00,CLR,,0.00,421.3,WeatherDisplay:10.37,2013-11-13 15:22:00,
2013-11-13 09:27:00,36.8,27.2,30.72,SE,139,5.6,6.9,68,0.00,CLR,,0.00,438.9,WeatherDisplay:10.37,2013-11-13 15:27:00,
2013-11-13 09:32:00,37.3,27.0,30.72,SSW,203,2.5,6.9,66,0.00,CLR,,0.00,454.3,WeatherDisplay:10.37,2013-11-13 15:32:00,
2013-11-13 09:37:00,37.3,26.2,30.71,SSE,154,2.9,6.9,64,0.00,CLR,,0.00,469.7,WeatherDisplay:10.37,2013-11-13 15:37:00,
2013-11-13 09:42:00,37.5,26.4,30.71,SSE,157,2.9,5.8,64,0.00,CLR,,0.00,482.9,WeatherDisplay:10.37,2013-11-13 15:42:00,
2013-11-13 09:47:00,38.2,26.7,30.71,SSE,156,0.8,4.6,63,0.00,CLR,,0.00,497.2,WeatherDisplay:10.37,2013-11-13 15:47:00,
2013-11-13 09:52:00,39.2,27.7,30.71,South,184,2.2,8.1,63,0.00,CLR,,0.00,510.4,WeatherDisplay:10.37,2013-11-13 15:52:00,
2013-11-13 09:57:00,39.5,27.5,30.71,SSW,193,2.4,9.0,62,0.00,CLR,,0.00,522.5,WeatherDisplay:10.37,2013-11-13 15:57:00,
2013-11-13 10:02:00,39.6,27.2,30.71,SSW,193,4.6,11.5,61,0.00,CLR,,0.00,535.7,WeatherDisplay:10.37,2013-11-13 16:02:00,
2013-11-13 10:07:00,39.9,26.3,30.70,SSE,166,3.2,7.0,58,0.00,CLR,,0.00,546.7,WeatherDisplay:10.37,2013-11-13 16:07:00,
2013-11-13 10:12:00,39.9,25.9,30.70,SSE,150,5.8,9.2,57,0.00,CLR,,0.00,561.0,WeatherDisplay:10.37,2013-11-13 16:12:00,
2013-11-13 10:17:00,40.5,26.9,30.69,SSE,155,4.3,8.1,58,0.00,CLR,,0.00,572.0,WeatherDisplay:10.37,2013-11-13 16:17:00,
2013-11-13 10:22:00,40.6,27.4,30.69,South,176,2.1,8.1,59,0.00,CLR,,0.00,581.9,WeatherDisplay:10.37,2013-11-13 16:22:00,
2013-11-13 10:27:00,41.0,26.9,30.69,SSE,147,4.1,8.1,57,0.00,CLR,,0.00,594.0,WeatherDisplay:10.37,2013-11-13 16:27:00,
2013-11-13 10:32:00,41.7,27.1,30.69,SSE,149,2.2,4.6,56,0.00,CLR,,0.00,602.8,WeatherDisplay:10.37,2013-11-13 16:32:00,
2013-11-13 10:37:00,42.0,27.9,30.69,SSE,154,3.3,8.1,57,0.00,CLR,,0.00,614.9,WeatherDisplay:10.37,2013-11-13 16:37:00,
2013-11-13 10:42:00,43.1,27.6,30.69,SSW,205,3.4,11.0,54,0.00,CLR,,0.00,624.8,WeatherDisplay:10.37,2013-11-13 16:42:00,
2013-11-13 10:47:00,43.5,26.6,30.68,SSW,208,7.7,11.5,51,0.00,CLR,,0.00,635.8,WeatherDisplay:10.37,2013-11-13 16:47:00,
2013-11-13 10:52:00,43.3,25.4,30.68,South,187,4.3,8.1,49,0.00,CLR,,0.00,642.4,WeatherDisplay:10.37,2013-11-13 16:52:00,
2013-11-13 10:57:00,43.2,25.8,30.68,SSW,208,8.3,14.0,50,0.00,CLR,,0.00,650.1,WeatherDisplay:10.37,2013-11-13 16:57:00,
2013-11-13 11:02:00,43.7,27.2,30.67,SSW,213,4.1,10.0,52,0.00,CLR,,0.00,655.6,WeatherDisplay:10.37,2013-11-13 17:02:00,
2013-11-13 11:07:00,44.5,26.0,30.67,SSW,197,6.5,10.4,48,0.00,CLR,,0.00,665.5,WeatherDisplay:10.37,2013-11-13 17:07:00,
2013-11-13 11:12:00,44.3,25.8,30.67,South,191,4.7,6.9,48,0.00,CLR,,0.00,671.0,WeatherDisplay:10.37,2013-11-13 17:12:00,
2013-11-13 11:17:00,44.1,25.1,30.66,South,174,1.3,4.6,47,0.00,CLR,,0.00,676.5,WeatherDisplay:10.37,2013-11-13 17:17:00,
2013-11-13 11:22:00,45.1,26.6,30.66,South,185,1.4,3.5,48,0.00,CLR,,0.00,683.1,WeatherDisplay:10.37,2013-11-13 17:22:00,
2013-11-13 11:27:00,45.6,27.0,30.66,SSW,203,5.3,8.1,48,0.00,CLR,,0.00,688.6,WeatherDisplay:10.37,2013-11-13 17:27:00,
2013-11-13 11:32:00,45.5,27.4,30.65,SSW,208,4.2,6.9,49,0.00,CLR,,0.00,694.1,WeatherDisplay:10.37,2013-11-13 17:32:00,
2013-11-13 11:37:00,45.0,27.0,30.65,SSW,205,4.2,5.8,49,0.00,CLR,,0.00,696.3,WeatherDisplay:10.37,2013-11-13 17:37:00,
2013-11-13 11:42:00,45.5,26.4,30.64,SSE,149,1.2,3.5,47,0.00,CLR,,0.00,699.6,WeatherDisplay:10.37,2013-11-13 17:42:00,
2013-11-13 11:47:00,45.7,26.6,30.64,SSW,203,5.2,6.9,47,0.00,CLR,,0.00,704.0,WeatherDisplay:10.37,2013-11-13 17:47:00,
2013-11-13 11:52:00,45.3,25.7,30.64,South,175,3.2,5.8,46,0.00,CLR,,0.00,706.2,WeatherDisplay:10.37,2013-11-13 17:52:00,
2013-11-13 11:57:00,46.0,26.4,30.63,SSW,201,3.8,8.1,46,0.00,CLR,,0.00,707.3,WeatherDisplay:10.37,2013-11-13 17:57:00,
2013-11-13 12:02:00,46.3,26.6,30.62,SSW,199,2.3,7.0,46,0.00,CLR,,0.00,709.5,WeatherDisplay:10.37,2013-11-13 18:02:00,
2013-11-13 12:07:00,47.0,26.2,30.62,SSW,209,6.0,9.2,44,0.00,CLR,,0.00,711.7,WeatherDisplay:10.37,2013-11-13 18:07:00,
2013-11-13 12:12:00,46.9,25.5,30.62,SW,214,3.4,6.9,43,0.00,CLR,,0.00,711.7,WeatherDisplay:10.37,2013-11-13 18:12:00,
2013-11-13 12:17:00,47.1,26.8,30.61,SW,218,8.7,10.4,45,0.00,CLR,,0.00,713.9,WeatherDisplay:10.37,2013-11-13 18:17:00,
2013-11-13 12:22:00,47.4,27.6,30.61,SSW,210,5.8,10.4,46,0.00,CLR,,0.00,713.9,WeatherDisplay:10.37,2013-11-13 18:22:00,
2013-11-13 12:27:00,47.9,28.6,30.61,SSW,203,2.3,5.8,47,0.00,CLR,,0.00,713.9,WeatherDisplay:10.37,2013-11-13 18:27:00,
2013-11-13 12:32:00,47.5,26.6,30.61,South,188,4.2,10.4,44,0.00,CLR,,0.00,709.5,WeatherDisplay:10.37,2013-11-13 18:32:00,
2013-11-13 12:37:00,47.1,26.3,30.60,SSW,208,7.3,10.4,44,0.00,CLR,,0.00,707.3,WeatherDisplay:10.37,2013-11-13 18:37:00,
2013-11-13 12:42:00,48.3,26.8,30.60,SSW,208,5.2,10.0,43,0.00,CLR,,0.00,706.2,WeatherDisplay:10.37,2013-11-13 18:42:00,
2013-11-13 12:47:00,47.8,26.9,30.60,SSW,203,2.2,5.0,44,0.00,CLR,,0.00,704.0,WeatherDisplay:10.37,2013-11-13 18:47:00,
2013-11-13 12:52:00,48.4,28.5,30.59,SSW,204,1.8,4.6,46,0.00,CLR,,0.00,704.0,WeatherDisplay:10.37,2013-11-13 18:52:00,
2013-11-13 12:57:00,48.1,24.9,30.59,SSW,203,0.1,3.0,40,0.00,CLR,,0.00,696.3,WeatherDisplay:10.37,2013-11-13 18:57:00,
2013-11-13 13:02:00,48.5,27.0,30.59,SSW,194,0.4,2.3,43,0.00,CLR,,0.00,691.9,WeatherDisplay:10.37,2013-11-13 19:02:00,
2013-11-13 13:07:00,49.7,28.6,30.58,SSW,212,7.2,10.0,44,0.00,CLR,,0.00,688.6,WeatherDisplay:10.37,2013-11-13 19:07:00,
2013-11-13 13:12:00,49.6,27.4,30.58,South,190,0.6,2.3,42,0.00,CLR,,0.00,683.1,WeatherDisplay:10.37,2013-11-13 19:12:00,
2013-11-13 13:17:00,49.7,28.1,30.58,SSE,168,1.1,4.0,43,0.00,CLR,,0.00,678.7,WeatherDisplay:10.37,2013-11-13 19:17:00,
2013-11-13 13:22:00,49.4,27.2,30.57,SW,216,5.8,8.1,42,0.00,CLR,,0.00,674.3,WeatherDisplay:10.37,2013-11-13 19:22:00,
2013-11-13 13:27:00,49.1,27.0,30.57,SSW,208,4.8,11.0,42,0.00,CLR,,0.00,666.6,WeatherDisplay:10.37,2013-11-13 19:27:00,
2013-11-13 13:32:00,49.2,25.9,30.57,SSW,213,5.2,7.0,40,0.00,CLR,,0.00,657.8,WeatherDisplay:10.37,2013-11-13 19:32:00,
2013-11-13 13:37:00,49.6,27.4,30.56,SSW,212,5.4,9.2,42,0.00,CLR,,0.00,651.2,WeatherDisplay:10.37,2013-11-13 19:37:00,
2013-11-13 13:42:00,49.7,27.5,30.56,SSW,205,2.1,5.8,42,0.00,CLR,,0.00,645.7,WeatherDisplay:10.37,2013-11-13 19:42:00,
2013-11-13 14:14:00,50.4,28.1,30.54,SW,217,7.4,13.0,42,0.00,CLR,,0.00,584.1,WeatherDisplay:10.37,2013-11-13 20:14:00,
2013-11-13 14:19:00,51.2,28.3,30.54,SSW,210,5.1,6.0,41,0.00,CLR,,0.00,574.2,WeatherDisplay:10.37,2013-11-13 20:19:00,
2013-11-13 14:24:00,50.9,26.8,30.54,SSW,209,1.4,4.6,39,0.00,CLR,,0.00,563.2,WeatherDisplay:10.37,2013-11-13 20:24:00,
2013-11-13 14:29:00,50.6,28.3,30.53,South,188,4.1,8.0,42,0.00,CLR,,0.00,551.1,WeatherDisplay:10.37,2013-11-13 20:29:00,
2013-11-13 14:34:00,50.2,27.4,30.53,SSW,192,3.1,8.1,41,0.00,CLR,,0.00,71.5,WeatherDisplay:10.37,2013-11-13 20:34:00,
2013-11-13 14:39:00,50.1,26.7,30.53,SSW,199,2.7,6.9,40,0.00,CLR,,0.00,398.2,WeatherDisplay:10.37,2013-11-13 20:39:00,
2013-11-13 14:44:00,49.7,26.9,30.53,SW,214,6.7,9.2,41,0.00,CLR,,0.00,132.0,WeatherDisplay:10.37,2013-11-13 20:44:00,
2013-11-13 14:49:00,50.4,28.1,30.52,SSW,200,6.6,9.2,42,0.00,CLR,,0.00,51.7,WeatherDisplay:10.37,2013-11-13 20:49:00,
2013-11-13 14:54:00,49.7,26.9,30.52,SSW,200,4.3,6.9,41,0.00,CLR,,0.00,51.7,WeatherDisplay:10.37,2013-11-13 20:54:00,
2013-11-13 14:59:00,49.9,28.3,30.51,SSW,193,2.1,3.5,43,0.00,CLR,,0.00,51.7,WeatherDisplay:10.37,2013-11-13 20:59:00,
2013-11-13 15:04:00,50.3,26.9,30.51,South,188,5.9,9.2,40,0.00,CLR,,0.00,50.6,WeatherDisplay:10.37,2013-11-13 21:04:00,
2013-11-13 15:09:00,50.3,27.5,30.51,SSE,156,2.7,4.6,41,0.00,CLR,,0.00,56.1,WeatherDisplay:10.37,2013-11-13 21:09:00,
2013-11-13 15:14:00,50.6,27.1,30.51,SSE,150,6.3,10.4,40,0.00,CLR,,0.00,50.6,WeatherDisplay:10.37,2013-11-13 21:14:00,
2013-11-13 15:19:00,50.4,27.6,30.51,SSE,156,3.6,9.2,41,0.00,CLR,,0.00,48.4,WeatherDisplay:10.37,2013-11-13 21:19:00,
2013-11-13 15:24:00,50.1,27.3,30.51,SSE,149,2.3,5.8,41,0.00,CLR,,0.00,50.6,WeatherDisplay:10.37,2013-11-13 21:24:00,
2013-11-13 15:29:00,50.3,27.5,30.50,SSE,153,2.1,4.6,41,0.00,CLR,,0.00,48.4,WeatherDisplay:10.37,2013-11-13 21:29:00,
2013-11-13 15:34:00,50.2,27.4,30.50,SSE,154,2.7,10.4,41,0.00,CLR,,0.00,58.3,WeatherDisplay:10.37,2013-11-13 21:34:00,
2013-11-13 15:39:00,49.8,26.4,30.51,SE,146,1.5,3.5,40,0.00,CLR,,0.00,51.7,WeatherDisplay:10.37,2013-11-13 21:39:00,
2013-11-13 15:44:00,49.9,27.1,30.50,South,181,4.0,8.1,41,0.00,CLR,,0.00,92.4,WeatherDisplay:10.37,2013-11-13 21:44:00,
2013-11-13 15:49:00,49.7,26.9,30.50,SSW,205,5.1,9.2,41,0.00,CLR,,0.00,48.4,WeatherDisplay:10.37,2013-11-13 21:49:00,
2013-11-13 15:54:00,49.8,26.4,30.50,SSW,199,0.8,3.0,40,0.00,CLR,,0.00,42.9,WeatherDisplay:10.37,2013-11-13 21:54:00,
2013-11-13 15:59:00,49.9,27.1,30.50,SSE,163,4.1,8.1,41,0.00,CLR,,0.00,42.9,WeatherDisplay:10.37,2013-11-13 21:59:00,
2013-11-13 16:04:00,49.6,26.8,30.50,SSE,161,4.2,5.8,41,0.00,CLR,,0.00,40.7,WeatherDisplay:10.37,2013-11-13 22:04:00,
2013-11-13 16:09:00,49.3,26.6,30.49,SSW,199,4.1,8.1,41,0.00,CLR,,0.00,40.7,WeatherDisplay:10.37,2013-11-13 22:09:00,
2013-11-13 16:14:00,49.2,27.1,30.49,SSE,156,2.7,3.5,42,0.00,CLR,,0.00,38.5,WeatherDisplay:10.37,2013-11-13 22:14:00,
2013-11-13 16:19:00,49.1,27.0,30.49,South,183,1.4,3.5,42,0.00,CLR,,0.00,40.7,WeatherDisplay:10.37,2013-11-13 22:19:00,
2013-11-13 16:24:00,48.8,26.7,30.49,South,187,0.8,5.8,42,0.00,CLR,,0.00,36.3,WeatherDisplay:10.37,2013-11-13 22:24:00,
2013-11-13 16:29:00,48.8,27.3,30.49,South,176,2.3,6.9,43,0.00,CLR,,0.00,35.2,WeatherDisplay:10.37,2013-11-13 22:29:00,
2013-11-13 16:34:00,48.6,26.5,30.49,South,176,1.5,2.3,42,0.00,CLR,,0.00,30.8,WeatherDisplay:10.37,2013-11-13 22:34:00,
2013-11-13 16:39:00,48.5,27.0,30.49,South,176,2.3,4.6,43,0.00,CLR,,0.00,28.6,WeatherDisplay:10.37,2013-11-13 22:39:00,
2013-11-13 16:44:00,48.0,27.1,30.48,South,175,1.7,4.0,44,0.00,CLR,,0.00,27.5,WeatherDisplay:10.37,2013-11-13 22:44:00,
2013-11-13 16:49:00,47.7,26.8,30.48,South,175,1.4,4.6,44,0.00,CLR,,0.00,23.1,WeatherDisplay:10.37,2013-11-13 22:49:00,
2013-11-13 16:54:00,47.3,27.0,30.48,South,175,3.3,5.8,45,0.00,CLR,,0.00,20.9,WeatherDisplay:10.37,2013-11-13 22:54:00,
2013-11-13 16:59:00,46.9,27.7,30.48,South,175,1.0,2.3,47,0.00,CLR,,0.00,17.6,WeatherDisplay:10.37,2013-11-13 22:59:00,
2013-11-13 17:04:00,46.5,27.3,30.48,South,175,0.9,3.5,47,0.00,CLR,,0.00,15.4,WeatherDisplay:10.37,2013-11-13 23:04:00,
2013-11-13 17:09:00,46.1,27.0,30.47,South,175,0.2,1.2,47,0.00,CLR,,0.00,12.1,WeatherDisplay:10.37,2013-11-13 23:09:00,
2013-11-13 17:14:00,45.4,27.3,30.47,South,175,1.6,3.5,49,0.00,CLR,,0.00,9.9,WeatherDisplay:10.37,2013-11-13 23:14:00,
2013-11-13 17:19:00,44.7,27.7,30.47,South,175,1.3,3.5,51,0.00,CLR,,0.00,7.7,WeatherDisplay:10.37,2013-11-13 23:19:00,
2013-11-13 17:24:00,44.2,27.7,30.47,South,175,4.6,6.9,52,0.00,CLR,,0.00,5.5,WeatherDisplay:10.37,2013-11-13 23:24:00,
2013-11-13 17:29:00,43.8,27.3,30.47,South,175,5.8,6.0,52,0.00,CLR,,0.00,0.0,WeatherDisplay:10.37,2013-11-13 23:29:00,
2013-11-13 17:34:00,43.2,27.7,30.47,South,175,6.1,6.9,54,0.00,CLR,,0.00,0.0,WeatherDisplay:10.37,2013-11-13 23:34:00,
2013-11-13 17:39:00,42.8,27.3,30.47,South,175,5.3,6.9,54,0.00,CLR,,0.00,0.0,WeatherDisplay:10.37,2013-11-13 23:39:00,
2013-11-13 17:44:00,42.3,27.3,30.47,South,175,4.8,6.9,55,0.00,CLR,,0.00,0.0,WeatherDisplay:10.37,2013-11-13 23:44:00,
2013-11-13 17:49:00,42.1,27.1,30.47,South,175,5.5,6.9,55,0.00,CLR,,0.00,0.0,WeatherDisplay:10.37,2013-11-13 23:49:00,
2013-11-13 17:54:00,41.8,27.7,30.47,South,175,1.4,4.6,57,0.00,CLR,,0.00,0.0,WeatherDisplay:10.37,2013-11-13 23:54:00,
2013-11-13 17:59:00,41.6,27.5,30.47,South,175,0.3,2.0,57,0.00,CLR,,0.00,0.0,WeatherDisplay:10.37,2013-11-13 23:59:00,
2013-11-13 18:04:00,41.5,27.8,30.47,South,175,0.2,1.2,58,0.00,CLR,,0.00,0.0,WeatherDisplay:10.37,2013-11-14 00:04:00,
2013-11-13 18:09:00,41.3,27.6,30.46,South,175,0.0,0.0,58,0.00,CLR,,0.00,0.0,WeatherDisplay:10.37,2013-11-14 00:09:00,
2013-11-13 18:14:00,39.7,27.7,30.47,South,175,0.0,1.2,62,0.00,CLR,,0.00,0.0,WeatherDisplay:10.37,2013-11-14 00:14:00,
2013-11-13 18:19:00,38.3,27.2,30.47,South,175,2.1,4.0,64,0.00,CLR,,0.00,0.0,WeatherDisplay:10.37,2013-11-14 00:19:00,
2013-11-13 18:24:00,39.8,27.8,30.46,South,175,0.1,1.2,62,0.00,CLR,,0.00,0.0,WeatherDisplay:10.37,2013-11-14 00:24:00,
2013-11-13 18:29:00,40.2,27.8,30.47,South,175,0.0,1.2,61,0.00,CLR,,0.00,0.0,WeatherDisplay:10.37,2013-11-14 00:29:00,
2013-11-13 18:34:00,39.7,28.1,30.47,South,175,0.0,0.0,63,0.00,CLR,,0.00,0.0,WeatherDisplay:10.37,2013-11-14 00:34:00,
2013-11-13 18:39:00,39.1,28.3,30.47,South,175,1.0,2.3,65,0.00,CLR,,0.00,0.0,WeatherDisplay:10.37,2013-11-14 00:39:00,
2013-11-13 18:44:00,38.8,28.0,30.46,South,175,1.0,2.3,65,0.00,CLR,,0.00,0.0,WeatherDisplay:10.37,2013-11-14 00:44:00,
2013-11-13 18:49:00,38.1,28.8,30.47,South,175,1.6,4.6,69,0.00,CLR,,0.00,0.0,WeatherDisplay:10.37,2013-11-14 00:49:00,
2013-11-13 18:54:00,38.5,28.5,30.47,South,175,1.5,2.3,67,0.00,CLR,,0.00,0.0,WeatherDisplay:10.37,2013-11-14 00:54:00,
2013-11-13 18:59:00,38.9,28.1,30.47,South,175,0.0,2.3,65,0.00,CLR,,0.00,0.0,WeatherDisplay:10.37,2013-11-14 00:59:00,
2013-11-13 19:04:00,38.9,28.5,30.47,South,175,0.0,0.0,66,0.00,CLR,,0.00,0.0,WeatherDisplay:10.37,2013-11-14 01:04:00,
2013-11-13 19:09:00,38.8,28.4,30.46,South,175,2.0,3.5,66,0.00,CLR,,0.00,0.0,WeatherDisplay:10.37,2013-11-14 01:09:00,
2013-11-13 19:14:00,38.6,28.2,30.46,South,175,0.0,1.2,66,0.00,CLR,,0.00,0.0,WeatherDisplay:10.37,2013-11-14 01:14:00,
2013-11-13 19:19:00,38.3,28.3,30.46,South,175,0.0,0.0,67,0.00,CLR,,0.00,0.0,WeatherDisplay:10.37,2013-11-14 01:19:00,
2013-11-13 19:24:00,38.3,28.7,30.46,South,175,0.0,0.0,68,0.00,CLR,,0.00,0.0,WeatherDisplay:10.37,2013-11-14 01:24:00,
2013-11-13 19:29:00,37.3,28.4,30.46,South,175,1.5,3.5,70,0.00,CLR,,0.00,0.0,WeatherDisplay:10.37,2013-11-14 01:29:00,
2013-11-13 19:34:00,36.6,28.8,30.46,South,175,0.2,4.6,73,0.00,CLR,,0.00,0.0,WeatherDisplay:10.37,2013-11-14 01:34:00,
2013-11-13 19:39:00,37.3,29.1,30.46,South,175,0.4,2.3,72,0.00,CLR,,0.00,0.0,WeatherDisplay:10.37,2013-11-14 01:39:00,
2013-11-13 19:44:00,38.1,29.2,30.46,South,175,0.0,0.0,70,0.00,CLR,,0.00,0.0,WeatherDisplay:10.37,2013-11-14 01:44:00,
2013-11-13 19:49:00,37.9,29.0,30.46,South,175,1.5,3.5,70,0.00,CLR,,0.00,0.0,WeatherDisplay:10.37,2013-11-14 01:49:00,
2013-11-13 19:54:00,37.9,29.0,30.46,South,175,0.0,1.2,70,0.00,CLR,,0.00,0.0,WeatherDisplay:10.37,2013-11-14 01:54:00,
2013-11-13 19:59:00,38.1,28.8,30.45,South,175,0.6,1.2,69,0.00,CLR,,0.00,0.0,WeatherDisplay:10.37,2013-11-14 01:59:00,
2013-11-13 20:04:00,38.0,28.4,30.45,South,175,0.3,2.0,68,0.00,CLR,,0.00,0.0,WeatherDisplay:10.37,2013-11-14 02:04:00,
2013-11-13 20:09:00,38.1,28.5,30.45,South,175,1.6,4.6,68,0.00,CLR,,0.00,0.0,WeatherDisplay:10.37,2013-11-14 02:09:00,
2013-11-13 20:14:00,38.3,28.3,30.45,South,175,0.5,2.3,67,0.00,CLR,,0.00,0.0,WeatherDisplay:10.37,2013-11-14 02:14:00,
2013-11-13 20:19:00,38.2,27.8,30.45,South,175,0.6,2.3,66,0.00,CLR,,0.00,0.0,WeatherDisplay:10.37,2013-11-14 02:19:00,
2013-11-13 20:24:00,38.3,27.9,30.45,South,175,0.7,1.2,66,0.00,CLR,,0.00,0.0,WeatherDisplay:10.37,2013-11-14 02:24:00,
2013-11-13 20:29:00,38.1,27.7,30.45,South,175,0.7,1.2,66,0.00,CLR,,0.00,0.0,WeatherDisplay:10.37,2013-11-14 02:29:00,
2013-11-13 20:34:00,38.1,27.7,30.45,South,175,1.1,2.3,66,0.00,CLR,,0.00,0.0,WeatherDisplay:10.37,2013-11-14 02:34:00,
2013-11-13 20:39:00,38.3,27.9,30.45,South,175,0.9,2.3,66,0.00,CLR,,0.00,0.0,WeatherDisplay:10.37,2013-11-14 02:39:00,
2013-11-13 20:44:00,38.2,27.8,30.44,South,175,0.9,2.3,66,0.00,CLR,,0.00,0.0,WeatherDisplay:10.37,2013-11-14 02:44:00,
2013-11-13 20:49:00,38.3,27.9,30.44,South,175,0.3,2.3,66,0.00,CLR,,0.00,0.0,WeatherDisplay:10.37,2013-11-14 02:49:00,
2013-11-13 20:54:00,38.3,27.9,30.44,South,175,0.0,1.2,66,0.00,CLR,,0.00,0.0,WeatherDisplay:10.37,2013-11-14 02:54:00,
2013-11-13 20:59:00,38.0,28.0,30.43,South,175,0.7,2.3,67,0.00,CLR,,0.00,0.0,WeatherDisplay:10.37,2013-11-14 02:59:00,
2013-11-13 21:04:00,38.1,28.1,30.43,South,175,0.2,1.0,67,0.00,CLR,,0.00,0.0,WeatherDisplay:10.37,2013-11-14 03:04:00,
2013-11-13 21:09:00,37.8,28.2,30.43,South,175,0.3,1.2,68,0.00,CLR,,0.00,0.0,WeatherDisplay:10.37,2013-11-14 03:09:00,
2013-11-13 21:14:00,37.7,28.4,30.43,South,175,0.2,1.2,69,0.00,CLR,,0.00,0.0,WeatherDisplay:10.37,2013-11-14 03:14:00,
2013-11-13 21:19:00,37.6,28.3,30.43,South,175,0.0,1.2,69,0.00,CLR,,0.00,0.0,WeatherDisplay:10.37,2013-11-14 03:19:00,
2013-11-13 21:24:00,37.4,28.5,30.43,South,175,2.1,5.8,70,0.00,CLR,,0.00,0.0,WeatherDisplay:10.37,2013-11-14 03:24:00,
2013-11-13 21:29:00,37.5,27.9,30.43,South,175,3.4,6.9,68,0.00,CLR,,0.00,0.0,WeatherDisplay:10.37,2013-11-14 03:29:00,
2013-11-13 21:34:00,37.5,27.9,30.43,South,175,2.3,5.8,68,0.00,CLR,,0.00,0.0,WeatherDisplay:10.37,2013-11-14 03:34:00,
2013-11-13 21:39:00,37.5,27.5,30.43,South,175,1.0,5.8,67,0.00,CLR,,0.00,0.0,WeatherDisplay:10.37,2013-11-14 03:39:00,
2013-11-13 21:44:00,37.5,26.8,30.42,South,175,1.7,4.6,65,0.00,CLR,,0.00,0.0,WeatherDisplay:10.37,2013-11-14 03:44:00,
2013-11-13 21:49:00,37.6,26.9,30.42,South,176,2.2,4.6,65,0.00,CLR,,0.00,0.0,WeatherDisplay:10.37,2013-11-14 03:49:00,
2013-11-13 21:54:00,37.7,26.6,30.42,South,176,2.1,3.5,64,0.00,CLR,,0.00,0.0,WeatherDisplay:10.37,2013-11-14 03:54:00,
2013-11-13 21:59:00,37.8,26.7,30.42,South,176,2.2,3.5,64,0.00,CLR,,0.00,0.0,WeatherDisplay:10.37,2013-11-14 03:59:00,
2013-11-13 22:04:00,37.6,26.5,30.42,South,176,2.5,5.8,64,0.00,CLR,,0.00,0.0,WeatherDisplay:10.37,2013-11-14 04:04:00,
2013-11-13 22:09:00,37.7,26.6,30.42,South,176,2.0,4.6,64,0.00,CLR,,0.00,0.0,WeatherDisplay:10.37,2013-11-14 04:09:00,
2013-11-13 22:14:00,37.7,27.0,30.42,South,176,2.6,5.8,65,0.00,CLR,,0.00,0.0,WeatherDisplay:10.37,2013-11-14 04:14:00,
2013-11-13 22:19:00,37.7,27.0,30.42,South,176,2.7,4.6,65,0.00,CLR,,0.00,0.0,WeatherDisplay:10.37,2013-11-14 04:19:00,
2013-11-13 22:24:00,37.7,27.0,30.41,South,176,3.0,6.9,65,0.00,CLR,,0.00,0.0,WeatherDisplay:10.37,2013-11-14 04:24:00,
2013-11-13 22:29:00,37.6,26.9,30.41,South,176,1.6,2.3,65,0.00,CLR,,0.00,0.0,WeatherDisplay:10.37,2013-11-14 04:29:00,
2013-11-13 22:34:00,37.3,26.6,30.41,South,176,1.7,3.5,65,0.00,CLR,,0.00,0.0,WeatherDisplay:10.37,2013-11-14 04:34:00,
2013-11-13 22:39:00,37.1,26.8,30.41,South,176,1.2,4.6,66,0.00,CLR,,0.00,0.0,WeatherDisplay:10.37,2013-11-14 04:39:00,
2013-11-13 22:44:00,36.8,26.5,30.41,South,176,1.1,3.5,66,0.00,CLR,,0.00,0.0,WeatherDisplay:10.37,2013-11-14 04:44:00,
2013-11-13 22:49:00,36.6,26.3,30.41,South,176,1.1,2.3,66,0.00,CLR,,0.00,0.0,WeatherDisplay:10.37,2013-11-14 04:49:00,
2013-11-13 22:54:00,36.5,26.6,30.41,South,176,1.2,2.3,67,0.00,CLR,,0.00,0.0,WeatherDisplay:10.37,2013-11-14 04:54:00,
2013-11-13 22:59:00,36.2,26.3,30.41,South,176,1.1,2.3,67,0.00,CLR,,0.00,0.0,WeatherDisplay:10.37,2013-11-14 04:59:00,
2013-11-13 23:01:00,36.2,26.3,30.41,South,176,1.3,3.5,67,0.00,CLR,,0.00,0.0,WeatherDisplay:10.37,2013-11-14 05:01:00,
2013-11-13 23:02:00,36.1,26.6,30.40,South,176,1.0,2.3,68,0.00,CLR,,0.00,0.0,WeatherDisplay:10.37,2013-11-14 05:02:00,
2013-11-13 23:07:00,35.9,26.4,30.40,South,176,0.9,2.3,68,0.00,CLR,,0.00,0.0,WeatherDisplay:10.37,2013-11-14 05:07:00,
2013-11-13 23:12:00,36.0,26.5,30.40,South,176,0.9,2.3,68,0.00,CLR,,0.00,0.0,WeatherDisplay:10.37,2013-11-14 05:12:00,
2013-11-13 23:17:00,35.9,26.7,30.40,South,176,0.7,2.3,69,0.00,CLR,,0.00,0.0,WeatherDisplay:10.37,2013-11-14 05:17:00,
2013-11-13 23:22:00,35.9,26.7,30.40,South,176,0.8,2.3,69,0.00,CLR,,0.00,0.0,WeatherDisplay:10.37,2013-11-14 05:22:00,
2013-11-13 23:27:00,35.8,26.6,30.40,South,176,0.1,1.2,69,0.00,CLR,,0.00,0.0,WeatherDisplay:10.37,2013-11-14 05:27:00,
2013-11-13 23:32:00,35.6,26.8,30.40,South,176,0.0,0.0,70,0.00,CLR,,0.00,0.0,WeatherDisplay:10.37,2013-11-14 05:32:00,
2013-11-13 23:37:00,35.5,27.0,30.39,South,176,0.0,0.0,71,0.00,CLR,,0.00,0.0,WeatherDisplay:10.37,2013-11-14 05:37:00,
2013-11-13 23:42:00,35.2,27.1,30.39,South,176,0.0,0.0,72,0.00,CLR,,0.00,0.0,WeatherDisplay:10.37,2013-11-14 05:42:00,
2013-11-13 23:47:00,35.0,26.9,30.39,South,176,0.1,1.2,72,0.00,CLR,,0.00,0.0,WeatherDisplay:10.37,2013-11-14 05:47:00,
2013-11-13 23:52:00,34.7,26.9,30.39,South,176,0.0,0.0,73,0.00,CLR,,0.00,0.0,WeatherDisplay:10.37,2013-11-14 05:52:00,
2013-11-13 23:57:00,34.5,27.1,30.39,South,176,0.0,0.0,74,0.00,CLR,,0.00,0.0,WeatherDisplay:10.37,2013-11-14 05:57:00,